Time;durP1;ratioP1;P1;durP2;ratioP2;P2;SDS_P1;SDS_P2;PMS_P1;PMS_P2;Temp;Humidity;BMP_temperature;BMP_pressure;BME280_temperature;BME280_humidity;BME280_pressure;Samples;Min_cycle;Max_cycle;Signal;HPM_P1;HPM_P2
2022/01/20 00:02:37;;;;;;;5.30;1.33;;;7.50;99.90;;;;;;10518903;28;20024;-64
2022/01/20 00:07:49;;;;;;;3.40;1.50;;;7.50;99.90;;;;;;10535281;28;20032;-61
2022/01/20 00:25:46;;;;;;;7.47;1.50;;;7.50;99.90;;;;;;10525921;28;20028;-61
2022/01/20 00:28:55;;;;;;;5.97;1.45;;;7.50;99.90;;;;;;10533453;28;20025;-59
2022/01/20 00:34:20;;;;;;;5.20;0.90;;;7.50;99.90;;;;;;10533052;28;20111;-62
2022/01/20 00:39:17;;;;;;;5.30;1.27;;;7.50;99.90;;;;;;10532275;28;20563;-60
2022/01/20 00:44:18;;;;;;;4.28;1.27;;;7.80;99.90;;;;;;10533281;28;20032;-61
2022/01/20 00:49:19;;;;;;;7.68;1.25;;;7.50;99.90;;;;;;10532160;28;20123;-63
2022/01/20 00:54:20;;;;;;;3.28;0.77;;;7.50;99.90;;;;;;10519559;28;20388;-64
2022/01/20 00:59:21;;;;;;;3.50;0.95;;;7.40;99.90;;;;;;10521619;28;20043;-62
2022/01/20 01:04:21;;;;;;;7.60;1.35;;;7.50;99.90;;;;;;10532920;28;20122;-63
2022/01/20 01:09:23;;;;;;;2.40;0.88;;;7.50;99.90;;;;;;10527344;28;20028;-63
2022/01/20 01:14:24;;;;;;;5.65;0.73;;;7.50;99.90;;;;;;10527415;28;20020;-63
2022/01/20 01:24:46;;;;;;;6.38;1.38;;;7.50;99.90;;;;;;10529034;28;20021;-64
2022/01/20 01:35:03;;;;;;;2.97;0.55;;;7.50;99.90;;;;;;10530463;28;20465;-63
2022/01/20 01:40:08;;;;;;;2.80;0.77;;;7.50;99.90;;;;;;10530299;28;20067;-63
2022/01/20 01:45:24;;;;;;;4.63;1.70;;;7.40;99.90;;;;;;10531841;28;20028;-63
2022/01/20 01:50:25;;;;;;;4.10;0.60;;;7.40;99.90;;;;;;10524842;28;20028;-64
2022/01/20 01:55:26;;;;;;;5.78;1.27;;;7.40;99.90;;;;;;10520605;28;20096;-63
2022/01/20 02:00:27;;;;;;;7.30;0.80;;;7.40;99.90;;;;;;10518054;28;20033;-63
2022/01/20 02:05:29;;;;;;;5.25;0.63;;;7.40;99.90;;;;;;10517343;28;20021;-64
2022/01/20 02:21:09;;;;;;;4.03;0.65;;;7.70;99.90;;;;;;10518357;28;20043;-62
2022/01/20 02:26:10;;;;;;;3.63;0.55;;;7.40;99.90;;;;;;10529783;28;20027;-64
2022/01/20 02:31:11;;;;;;;1.85;0.50;;;7.40;99.90;;;;;;10525322;28;20016;-63
2022/01/20 02:36:15;;;;;;;3.42;0.55;;;7.40;99.90;;;;;;10510746;28;20344;-63
2022/01/20 02:46:37;;;;;;;5.72;0.60;;;7.40;99.90;;;;;;10520187;28;20043;-61
2022/01/20 02:51:37;;;;;;;6.80;0.88;;;7.40;99.90;;;;;;10520898;28;20467;-60
2022/01/20 02:56:38;;;;;;;3.00;0.50;;;7.40;99.90;;;;;;10532888;28;20024;-59
2022/01/20 03:01:39;;;;;;;2.33;0.57;;;7.40;99.90;;;;;;10523078;28;20036;-59
2022/01/20 03:06:40;;;;;;;4.57;0.73;;;7.40;99.90;;;;;;10516412;28;20023;-64
2022/01/20 03:11:40;;;;;;;2.25;0.70;;;7.40;99.90;;;;;;10527998;28;20389;-60
2022/01/20 03:16:41;;;;;;;2.38;0.60;;;7.40;99.90;;;;;;10525957;28;20640;-63
2022/01/20 03:21:43;;;;;;;1.17;0.73;;;7.40;99.90;;;;;;10517319;28;20482;-63
2022/01/20 03:26:44;;;;;;;5.32;0.90;;;7.40;99.90;;;;;;10513977;28;20036;-62
2022/01/20 03:31:44;;;;;;;4.22;0.43;;;7.40;99.90;;;;;;10527235;28;20093;-62
2022/01/20 03:36:45;;;;;;;1.55;0.57;;;7.70;99.90;;;;;;10520472;28;20469;-63
2022/01/20 03:41:46;;;;;;;2.97;0.40;;;7.40;99.90;;;;;;10533475;28;20326;-63
2022/01/20 03:46:47;;;;;;;2.78;0.50;;;7.40;99.90;;;;;;10532171;28;20043;-62
2022/01/20 03:51:47;;;;;;;3.38;0.65;;;7.50;99.90;;;;;;10518964;28;20027;-60
2022/01/20 03:56:48;;;;;;;1.85;0.63;;;7.40;99.90;;;;;;10527233;28;20027;-62
2022/01/20 04:01:49;;;;;;;5.00;0.88;;;7.40;99.90;;;;;;10526082;28;20056;-64
2022/01/20 04:06:50;;;;;;;4.25;0.60;;;7.30;99.90;;;;;;10521974;28;20029;-64
2022/01/20 04:11:51;;;;;;;3.35;0.50;;;7.30;99.90;;;;;;10528203;28;20047;-64
2022/01/20 04:21:57;;;;;;;5.25;0.63;;;7.30;99.90;;;;;;10533020;28;20096;-62
2022/01/20 04:26:58;;;;;;;7.00;1.05;;;7.30;99.90;;;;;;10533587;28;20470;-59
2022/01/20 04:31:59;;;;;;;1.65;0.70;;;7.30;99.90;;;;;;10519626;28;20077;-62
2022/01/20 04:37:03;;;;;;;4.00;0.65;;;7.30;99.90;;;;;;10532783;28;20521;-62
2022/01/20 04:42:04;;;;;;;4.70;0.80;;;7.30;99.90;;;;;;10538627;28;20436;-63
2022/01/20 04:57:30;;;;;;;7.00;1.23;;;7.30;99.90;;;;;;10528306;28;20043;-60
2022/01/20 05:02:30;;;;;;;5.05;0.90;;;7.30;99.90;;;;;;10517009;28;20028;-64
2022/01/20 05:07:31;;;;;;;6.07;0.73;;;7.30;99.90;;;;;;10525759;28;20021;-64
2022/01/20 05:13:02;;;;;;;5.78;1.23;;;7.20;99.90;;;;;;10531700;28;20012;-63
2022/01/20 05:17:56;;;;;;;4.90;1.10;;;7.20;99.90;;;;;;10523641;28;20048;-61
2022/01/20 05:22:56;;;;;;;5.00;0.90;;;7.30;99.90;;;;;;10525310;28;20016;-60
2022/01/20 05:27:57;;;;;;;7.10;1.23;;;7.30;99.90;;;;;;10510931;28;20052;-63
2022/01/20 05:32:59;;;;;;;11.30;1.25;;;7.20;99.90;;;;;;10522944;28;20033;-60
2022/01/20 05:38:00;;;;;;;5.72;0.90;;;7.20;99.90;;;;;;10530601;28;20056;-63
2022/01/20 05:43:03;;;;;;;7.03;0.95;;;7.20;99.90;;;;;;10537335;28;20073;-60
2022/01/20 05:48:15;;;;;;;3.60;0.90;;;7.20;99.90;;;;;;10525012;28;20401;-60
2022/01/20 05:53:16;;;;;;;9.57;1.55;;;7.20;99.90;;;;;;10517963;28;20031;-63
2022/01/20 05:58:19;;;;;;;7.82;0.90;;;7.10;99.90;;;;;;10526809;28;20509;-62
2022/01/20 06:03:38;;;;;;;9.52;1.33;;;7.20;99.90;;;;;;10520685;28;20039;-62
2022/01/20 06:08:44;;;;;;;6.70;0.80;;;7.10;99.90;;;;;;10526462;28;20584;-58
2022/01/20 06:13:44;;;;;;;4.07;0.70;;;7.10;99.90;;;;;;10529796;28;20032;-63
2022/01/20 06:18:45;;;;;;;7.70;1.15;;;7.20;99.90;;;;;;10530177;28;20032;-60
2022/01/20 06:23:46;;;;;;;5.35;0.85;;;7.10;99.90;;;;;;10519984;28;20050;-60
2022/01/20 06:28:47;;;;;;;7.07;1.20;;;7.10;99.90;;;;;;10532742;28;20036;-63
2022/01/20 06:33:47;;;;;;;2.78;0.68;;;7.10;99.90;;;;;;10529467;28;20093;-59
2022/01/20 06:38:48;;;;;;;5.78;0.90;;;7.10;99.90;;;;;;10522194;28;20142;-59
2022/01/20 06:43:49;;;;;;;3.20;0.93;;;7.10;99.90;;;;;;10527054;28;20293;-61
2022/01/20 06:48:50;;;;;;;6.70;1.10;;;7.10;99.90;;;;;;10526393;28;20352;-63
2022/01/20 06:53:50;;;;;;;6.05;0.90;;;7.10;99.90;;;;;;10517951;28;20021;-64
2022/01/20 06:58:51;;;;;;;5.32;1.33;;;7.20;99.90;;;;;;10517968;28;20043;-61
2022/01/20 07:03:52;;;;;;;4.90;0.80;;;7.10;99.90;;;;;;10520399;28;20489;-59
2022/01/20 07:08:53;;;;;;;3.80;1.00;;;7.10;99.90;;;;;;10524002;28;20039;-62
2022/01/20 07:13:53;;;;;;;3.70;0.90;;;7.10;99.90;;;;;;10526841;28;20471;-60
2022/01/20 07:18:55;;;;;;;3.33;0.93;;;7.10;99.90;;;;;;10524595;28;20032;-62
2022/01/20 07:23:55;;;;;;;8.20;0.95;;;7.10;99.90;;;;;;10507733;28;20035;-63
2022/01/20 07:28:56;;;;;;;4.25;0.95;;;7.20;99.90;;;;;;10512031;28;20028;-63
2022/01/20 07:33:57;;;;;;;5.88;1.13;;;7.00;99.90;;;;;;10517020;28;20031;-62
2022/01/20 07:38:58;;;;;;;4.50;1.02;;;7.00;99.90;;;;;;10520438;28;20090;-65
2022/01/20 07:43:58;;;;;;;5.05;1.00;;;7.00;99.90;;;;;;10525205;28;20063;-61
2022/01/20 07:48:59;;;;;;;5.40;1.05;;;7.00;99.90;;;;;;10521872;28;20043;-61
2022/01/20 07:54:00;;;;;;;4.88;1.10;;;7.00;99.90;;;;;;10494135;28;20016;-62
2022/01/20 07:59:00;;;;;;;3.50;0.75;;;7.00;99.90;;;;;;10517690;28;20032;-62
2022/01/20 08:04:01;;;;;;;4.25;0.90;;;7.00;99.90;;;;;;10519600;28;20026;-58
2022/01/20 08:09:02;;;;;;;3.85;1.02;;;7.00;99.90;;;;;;10534791;28;20028;-61
2022/01/20 08:14:03;;;;;;;3.85;0.77;;;7.00;99.90;;;;;;10525061;28;20065;-63
2022/01/20 08:19:04;;;;;;;6.18;0.70;;;6.90;99.90;;;;;;10525660;28;20085;-60
2022/01/20 08:24:05;;;;;;;7.10;1.27;;;6.90;99.90;;;;;;10527493;28;20081;-62
2022/01/20 08:29:06;;;;;;;6.38;1.00;;;6.90;99.90;;;;;;10518742;28;20024;-62
2022/01/20 08:34:06;;;;;;;6.28;1.10;;;7.20;99.90;;;;;;10531255;28;20024;-59
2022/01/20 08:44:43;;;;;;;6.28;1.25;;;7.00;99.90;;;;;;10430358;28;20047;-60
2022/01/20 08:49:46;;;;;;;5.15;0.82;;;7.00;99.90;;;;;;10462120;28;20040;-61
2022/01/20 08:54:47;;;;;;;5.88;1.58;;;7.00;99.90;;;;;;10466284;28;20025;-64
2022/01/20 08:59:48;;;;;;;5.53;0.93;;;7.40;99.90;;;;;;10469543;28;20081;-63
2022/01/20 09:04:49;;;;;;;6.60;1.00;;;7.00;99.90;;;;;;10464651;28;20479;-60
2022/01/20 09:09:50;;;;;;;5.10;1.23;;;7.00;99.90;;;;;;10457239;28;20115;-62
2022/01/20 09:20:10;;;;;;;;;;;7.20;99.90;;;;;;10459124;28;20037;-62
2022/01/20 09:25:11;;;;;;;8.10;1.00;;;7.20;99.80;;;;;;10455521;28;19904;-63
2022/01/20 09:30:18;;;;;;;3.33;1.02;;;7.30;99.90;;;;;;10452005;28;20021;-62
2022/01/20 09:35:19;;;;;;;5.32;1.00;;;7.30;99.90;;;;;;10454116;28;20106;-60
2022/01/20 09:40:19;;;;;;;7.57;1.20;;;7.30;99.80;;;;;;10482536;28;20191;-62
2022/01/20 09:45:20;;;;;;;5.18;1.10;;;7.40;99.70;;;;;;10496727;28;20103;-64
2022/01/20 09:50:22;;;;;;;12.48;2.05;;;7.40;99.80;;;;;;10501863;28;20097;-64
2022/01/20 09:55:23;;;;;;;6.10;1.63;;;7.50;99.80;;;;;;10495033;28;20470;-63
2022/01/20 10:00:24;;;;;;;7.63;1.08;;;7.40;99.90;;;;;;10506553;28;20032;-63
2022/01/20 10:05:33;;;;;;;5.43;0.90;;;7.40;99.90;;;;;;10505636;28;20035;-62
2022/01/20 10:10:57;;;;;;;3.75;0.93;;;7.40;99.90;;;;;;10535253;28;20034;-62
2022/01/20 10:15:57;;;;;;;10.52;1.10;;;7.50;99.80;;;;;;10509907;28;20024;-62
2022/01/20 10:21:04;;;;;;;3.55;0.85;;;7.60;99.90;;;;;;10528488;28;20040;-62
2022/01/20 10:26:18;;;;;;;4.72;1.00;;;7.70;99.80;;;;;;10527865;28;20387;-63
2022/01/20 10:31:34;;;;;;;6.88;0.80;;;7.80;99.70;;;;;;10527954;28;20032;-62
2022/01/20 10:36:40;;;;;;;6.25;1.05;;;7.90;99.60;;;;;;10527574;28;20008;-64
2022/01/20 10:41:41;;;;;;;5.55;1.40;;;7.90;99.60;;;;;;10529537;28;20064;-64
2022/01/20 10:46:48;;;;;;;4.68;1.48;;;7.80;99.60;;;;;;10524352;28;20539;-64
2022/01/20 10:52:04;;;;;;;5.80;0.88;;;7.80;99.70;;;;;;10505537;28;20029;-63
2022/01/20 10:57:07;;;;;;;4.45;1.13;;;7.80;99.60;;;;;;10507762;28;20394;-63
2022/01/20 11:02:09;;;;;;;3.15;0.70;;;7.80;99.70;;;;;;10503724;28;20036;-63
2022/01/20 11:07:11;;;;;;;5.07;0.80;;;7.80;99.70;;;;;;10523663;28;20030;-63
2022/01/20 11:12:15;;;;;;;6.00;0.98;;;7.90;99.70;;;;;;10526634;28;20035;-64
2022/01/20 11:17:25;;;;;;;5.30;1.25;;;7.90;99.60;;;;;;10522028;28;20071;-63
2022/01/20 11:22:26;;;;;;;5.80;1.10;;;8.20;99.60;;;;;;10523403;28;20595;-64
2022/01/20 11:27:42;;;;;;;8.30;1.13;;;8.00;99.60;;;;;;10526169;28;20120;-60
2022/01/20 11:32:45;;;;;;;5.32;0.90;;;8.00;99.60;;;;;;10526076;28;20394;-62
2022/01/20 11:37:56;;;;;;;4.95;0.70;;;7.90;99.60;;;;;;10525817;28;20163;-63
2022/01/20 11:43:09;;;;;;;5.63;0.88;;;7.90;99.70;;;;;;10524704;28;20043;-63
2022/01/20 11:48:24;;;;;;;5.85;0.73;;;7.90;99.80;;;;;;10521308;28;20513;-63
2022/01/20 11:53:24;;;;;;;4.70;1.23;;;7.80;99.80;;;;;;10501236;28;20040;-62
2022/01/20 11:58:26;;;;;;;3.03;0.95;;;7.80;99.90;;;;;;10518028;28;20033;-62
2022/01/20 12:03:28;;;;;;;6.50;1.58;;;7.80;99.90;;;;;;10499580;28;20348;-64
2022/01/20 12:08:29;;;;;;;5.05;0.82;;;7.90;99.90;;;;;;10511612;28;20487;-63
2022/01/20 12:13:33;;;;;;;8.00;1.90;;;7.90;99.90;;;;;;10532127;28;20066;-62
2022/01/20 12:18:34;;;;;;;3.88;0.70;;;7.90;99.90;;;;;;10530199;28;20047;-62
2022/01/20 12:23:46;;;;;;;6.68;1.00;;;7.90;99.90;;;;;;10526348;28;20028;-63
2022/01/20 12:28:47;;;;;;;3.63;0.77;;;7.90;99.90;;;;;;10503754;28;20115;-62
2022/01/20 12:33:53;;;;;;;3.20;1.00;;;7.90;99.90;;;;;;10496518;28;20027;-61
2022/01/20 12:38:54;;;;;;;3.67;1.02;;;7.80;99.90;;;;;;10492246;28;20566;-63
2022/01/20 12:44:08;;;;;;;6.25;1.05;;;8.00;99.90;;;;;;10492862;28;20035;-60
2022/01/20 12:49:14;;;;;;;5.25;1.15;;;7.90;99.90;;;;;;10502829;28;20273;-63
2022/01/20 12:54:26;;;;;;;4.53;0.82;;;7.90;99.90;;;;;;10498155;28;20127;-63
2022/01/20 12:59:30;;;;;;;8.95;1.27;;;7.90;99.90;;;;;;10508937;28;20032;-61
2022/01/20 13:04:32;;;;;;;3.78;0.70;;;8.00;99.90;;;;;;10504787;28;20457;-63
2022/01/20 13:09:51;;;;;;;3.25;0.57;;;7.90;99.90;;;;;;10494553;28;20490;-63
2022/01/20 13:14:52;;;;;;;4.40;0.80;;;8.00;99.80;;;;;;10496274;28;20482;-61
2022/01/20 13:19:55;;;;;;;2.70;0.82;;;7.90;99.80;;;;;;10497596;28;20032;-64
2022/01/20 13:25:13;;;;;;;5.40;1.20;;;7.90;99.90;;;;;;10504943;28;20048;-62
2022/01/20 13:30:39;;;;;;;2.22;0.93;;;7.80;99.80;;;;;;10495816;28;20036;-61
2022/01/20 13:35:42;;;;;;;5.32;0.88;;;7.80;99.90;;;;;;10489858;28;20098;-64
2022/01/20 13:40:46;;;;;;;3.50;0.63;;;7.80;99.90;;;;;;10507483;28;20338;-63
2022/01/20 13:45:46;;;;;;;5.38;0.90;;;8.10;99.90;;;;;;10528335;28;20073;-61
2022/01/20 13:50:55;;;;;;;4.88;0.95;;;7.80;99.90;;;;;;10500539;28;20038;-63
2022/01/20 13:55:58;;;;;;;2.77;0.70;;;7.80;99.90;;;;;;10523700;28;20221;-63
2022/01/20 14:01:08;;;;;;;5.43;0.90;;;7.70;99.90;;;;;;10505017;28;20051;-64
2022/01/20 14:06:09;;;;;;;3.75;0.90;;;7.70;99.90;;;;;;10500437;28;20033;-63
2022/01/20 14:11:10;;;;;;;4.15;0.65;;;7.70;99.90;;;;;;10498313;28;20170;-64
2022/01/20 14:16:11;;;;;;;4.03;0.70;;;7.70;99.90;;;;;;10495214;28;20032;-62
2022/01/20 14:21:13;;;;;;;2.80;0.63;;;7.80;99.90;;;;;;10495859;28;20028;-64
2022/01/20 14:26:22;;;;;;;4.78;1.10;;;7.70;99.90;;;;;;10502054;28;20027;-64
2022/01/20 14:31:23;;;;;;;4.77;0.80;;;7.70;99.90;;;;;;10496478;28;20032;-63
2022/01/20 14:36:23;;;;;;;2.92;0.85;;;7.70;99.90;;;;;;10528327;28;20135;-64
2022/01/20 14:41:24;;;;;;;3.13;0.90;;;7.70;99.90;;;;;;10529038;28;20203;-62
2022/01/20 14:46:25;;;;;;;2.92;0.40;;;7.70;99.90;;;;;;10525444;28;20478;-62
2022/01/20 14:51:25;;;;;;;3.72;0.60;;;7.60;99.90;;;;;;10520110;28;20135;-65
2022/01/20 14:56:26;;;;;;;3.67;0.52;;;7.70;99.90;;;;;;10531033;28;20470;-64
2022/01/20 15:01:27;;;;;;;2.60;1.00;;;7.80;99.90;;;;;;10514389;28;20067;-61
2022/01/20 15:06:27;;;;;;;1.73;0.65;;;7.60;99.90;;;;;;10521352;28;20057;-59
2022/01/20 15:11:28;;;;;;;5.07;0.82;;;7.60;99.90;;;;;;10520205;28;20032;-64
2022/01/20 15:16:29;;;;;;;4.22;0.80;;;7.60;99.90;;;;;;10514111;28;20056;-64
2022/01/20 15:21:30;;;;;;;8.50;0.95;;;6.90;99.60;;;;;;10510644;28;20051;-64
2022/01/20 15:26:31;;;;;;;3.88;0.80;;;6.00;99.80;;;;;;10517645;28;20024;-71
2022/01/20 15:31:36;;;;;;;2.60;0.50;;;5.50;99.90;;;;;;10524648;28;20742;-64
2022/01/20 15:36:37;;;;;;;5.70;0.95;;;5.70;99.90;;;;;;10535415;28;20023;-65
2022/01/20 15:41:39;;;;;;;5.05;0.82;;;6.00;99.90;;;;;;10495845;28;20052;-63
2022/01/20 15:46:40;;;;;;;4.28;1.02;;;6.30;99.90;;;;;;10496333;28;20028;-64
2022/01/20 15:51:40;;;;;;;5.22;1.13;;;6.50;99.90;;;;;;10470249;28;20111;-64
2022/01/20 15:56:41;;;;;;;5.60;0.90;;;6.70;99.90;;;;;;10504229;28;20024;-63
2022/01/20 16:01:42;;;;;;;6.55;1.13;;;6.80;99.90;;;;;;10484619;28;20037;-61
2022/01/20 16:06:45;;;;;;;3.45;1.00;;;6.90;99.90;;;;;;10461308;28;20017;-60
2022/01/20 16:11:46;;;;;;;3.08;0.90;;;6.90;99.90;;;;;;10453818;28;20141;-63
2022/01/20 16:16:47;;;;;;;4.47;0.88;;;7.00;99.90;;;;;;10462461;28;20033;-62
2022/01/20 16:21:48;;;;;;;2.65;0.70;;;7.00;99.90;;;;;;10455398;28;20049;-63
2022/01/20 16:26:49;;;;;;;3.45;0.70;;;7.00;99.90;;;;;;10456741;28;20037;-64
2022/01/20 16:31:50;;;;;;;3.65;0.82;;;7.00;99.90;;;;;;10458951;28;20048;-61
2022/01/20 16:36:51;;;;;;;2.83;0.77;;;7.00;99.90;;;;;;10490651;28;20023;-61
2022/01/20 16:41:51;;;;;;;3.40;1.02;;;7.10;99.90;;;;;;10483950;28;20451;-63
2022/01/20 16:46:54;;;;;;;3.33;1.02;;;7.10;99.90;;;;;;10484462;28;20678;-61
2022/01/20 16:51:55;;;;;;;1.98;0.60;;;7.10;99.90;;;;;;10482713;28;20090;-62
2022/01/20 16:56:56;;;;;;;3.67;0.93;;;7.10;99.90;;;;;;10489698;28;20048;-62
2022/01/20 17:01:58;;;;;;;4.15;1.00;;;7.10;99.90;;;;;;10476504;28;20152;-62
2022/01/20 17:06:58;;;;;;;2.83;1.67;;;7.00;99.90;;;;;;10489304;28;20547;-62
2022/01/20 17:11:59;;;;;;;5.65;1.05;;;7.10;99.90;;;;;;10477607;28;20077;-62
2022/01/20 17:17:00;;;;;;;4.00;1.10;;;7.00;99.90;;;;;;10484446;28;20036;-61
2022/01/20 17:22:00;;;;;;;4.82;1.25;;;7.00;99.90;;;;;;10454587;28;20045;-62
2022/01/20 17:27:02;;;;;;;2.47;0.63;;;7.00;99.90;;;;;;10487201;28;20400;-63
2022/01/20 17:32:03;;;;;;;5.85;1.08;;;7.00;99.90;;;;;;10471549;28;20016;-60
2022/01/20 17:37:04;;;;;;;4.00;0.88;;;6.90;99.90;;;;;;10475155;28;20535;-62
2022/01/20 17:42:05;;;;;;;5.82;1.17;;;7.00;99.90;;;;;;10518806;28;20051;-62
2022/01/20 17:47:06;;;;;;;7.22;1.05;;;6.90;99.90;;;;;;10512686;28;20032;-63
2022/01/20 17:52:07;;;;;;;4.55;1.35;;;6.90;99.90;;;;;;10511173;28;20114;-63
2022/01/20 17:57:08;;;;;;;2.40;0.90;;;6.90;99.90;;;;;;10525186;28;20024;-63
2022/01/20 18:02:09;;;;;;;5.25;1.05;;;7.00;99.90;;;;;;10513967;28;20047;-63
2022/01/20 18:07:10;;;;;;;5.97;1.15;;;7.10;99.90;;;;;;10535371;28;20020;-63
2022/01/20 18:12:11;;;;;;;5.47;1.15;;;6.90;99.90;;;;;;10528151;28;20031;-63
2022/01/20 18:17:11;;;;;;;7.85;1.45;;;6.90;99.90;;;;;;10521138;28;20494;-64
2022/01/20 18:22:12;;;;;;;5.60;1.35;;;6.90;99.80;;;;;;10522074;28;20128;-61
2022/01/20 18:27:13;;;;;;;4.35;0.80;;;7.00;99.90;;;;;;10515264;28;20040;-61
2022/01/20 18:32:14;;;;;;;6.05;1.15;;;7.10;99.60;;;;;;10488114;28;20051;-66
2022/01/20 18:37:15;;;;;;;13.45;1.83;;;7.10;99.60;;;;;;10527164;28;20024;-64
2022/01/20 18:42:16;;;;;;;7.82;1.55;;;7.00;99.60;;;;;;10534696;28;20047;-64
2022/01/20 18:47:16;;;;;;;7.60;1.90;;;7.00;99.60;;;;;;10524731;28;20032;-60
2022/01/20 18:52:17;;;;;;;6.38;1.05;;;7.00;99.60;;;;;;10510549;28;20044;-63
2022/01/20 18:57:18;;;;;;;4.55;1.23;;;7.00;99.60;;;;;;10521627;28;20032;-60
2022/01/20 19:02:19;;;;;;;5.57;1.17;;;6.90;99.60;;;;;;10492920;28;20067;-61
2022/01/20 19:07:20;;;;;;;3.90;0.90;;;6.90;99.60;;;;;;10504624;28;20340;-63
2022/01/20 19:12:21;;;;;;;7.38;1.60;;;7.00;99.60;;;;;;10503740;28;20035;-62
2022/01/20 19:17:22;;;;;;;6.90;1.23;;;6.90;99.60;;;;;;10506491;28;20657;-60
2022/01/20 19:22:25;;;;;;;8.93;1.02;;;6.90;99.60;;;;;;10502189;28;20021;-64
2022/01/20 19:27:26;;;;;;;5.63;1.00;;;6.80;99.90;;;;;;10500724;28;20035;-64
2022/01/20 19:32:27;;;;;;;6.68;1.50;;;6.80;99.60;;;;;;10505977;28;20024;-59
2022/01/20 19:37:28;;;;;;;8.40;1.13;;;6.80;99.60;;;;;;10503742;28;20419;-60
2022/01/20 19:42:28;;;;;;;4.38;1.15;;;6.80;99.60;;;;;;10516818;28;20028;-60
2022/01/20 19:47:29;;;;;;;5.55;0.88;;;7.20;99.70;;;;;;10505921;28;20438;-59
2022/01/20 19:52:30;;;;;;;6.95;1.25;;;6.70;99.60;;;;;;10511544;28;22005;-59
2022/01/20 19:57:31;;;;;;;6.25;1.17;;;6.80;99.60;;;;;;10525230;28;20012;-62
2022/01/20 20:02:32;;;;;;;6.45;1.35;;;6.70;99.50;;;;;;10507788;28;20043;-64
2022/01/20 20:07:32;;;;;;;7.72;1.50;;;6.90;99.60;;;;;;10521222;28;20024;-59
2022/01/20 20:12:33;;;;;;;4.68;1.23;;;6.70;99.50;;;;;;10508326;28;20518;-62
2022/01/20 20:17:34;;;;;;;4.43;1.35;;;6.70;99.50;;;;;;10505757;28;20128;-63
2022/01/20 20:22:35;;;;;;;5.00;1.70;;;6.70;99.50;;;;;;10514905;28;20041;-60
2022/01/20 20:27:36;;;;;;;5.47;1.08;;;6.70;99.50;;;;;;10520494;28;20114;-61
2022/01/20 20:32:37;;;;;;;5.20;1.30;;;6.70;99.40;;;;;;10516678;28;20077;-60
2022/01/20 20:37:38;;;;;;;4.38;1.33;;;6.70;99.40;;;;;;10510706;28;20033;-62
2022/01/20 20:42:39;;;;;;;4.50;1.10;;;6.70;99.40;;;;;;10492606;28;20029;-60
2022/01/20 20:47:40;;;;;;;8.38;1.52;;;6.70;99.50;;;;;;10481277;28;20058;-62
2022/01/20 20:52:41;;;;;;;5.20;1.42;;;7.00;99.50;;;;;;10462385;28;20527;-62
2022/01/20 20:57:43;;;;;;;7.53;1.63;;;6.70;99.40;;;;;;10484632;28;20590;-61
2022/01/20 21:02:45;;;;;;;7.22;1.75;;;6.70;99.40;;;;;;10475301;28;20020;-62
2022/01/20 21:07:46;;;;;;;6.88;1.42;;;6.70;99.40;;;;;;10500713;28;20070;-61
2022/01/20 21:12:47;;;;;;;3.15;1.65;;;6.60;99.40;;;;;;10486059;28;20372;-62
2022/01/20 21:17:47;;;;;;;3.90;1.35;;;6.80;99.50;;;;;;10486611;28;20036;-62
2022/01/20 21:22:48;;;;;;;5.68;1.27;;;6.70;99.40;;;;;;10492121;28;20033;-63
2022/01/20 21:27:49;;;;;;;5.65;1.30;;;6.60;99.40;;;;;;10472644;28;20048;-63
2022/01/20 21:32:51;;;;;;;5.70;1.30;;;6.70;99.40;;;;;;10495364;28;20384;-63
2022/01/20 21:37:51;;;;;;;5.45;1.10;;;6.60;99.40;;;;;;10485794;28;20172;-60
2022/01/20 21:42:52;;;;;;;6.22;1.80;;;6.60;99.40;;;;;;10465950;28;20602;-62
2022/01/20 21:47:54;;;;;;;4.70;1.30;;;6.70;99.40;;;;;;10464313;28;20390;-61
2022/01/20 21:52:55;;;;;;;8.32;1.88;;;6.60;99.40;;;;;;10490585;28;20032;-62
2022/01/20 21:57:55;;;;;;;6.25;1.40;;;6.60;99.40;;;;;;10484399;28;20044;-62
2022/01/20 22:02:56;;;;;;;6.15;1.27;;;6.60;99.40;;;;;;10481629;28;20397;-61
2022/01/20 22:07:58;;;;;;;5.15;1.52;;;6.60;99.50;;;;;;10488824;28;20020;-62
2022/01/20 22:12:58;;;;;;;8.75;2.70;;;6.60;99.50;;;;;;10470197;28;20393;-60
2022/01/20 22:17:59;;;;;;;6.07;1.42;;;6.90;99.50;;;;;;10467277;28;20051;-61
2022/01/20 22:23:00;;;;;;;7.68;1.60;;;6.60;99.50;;;;;;10459826;28;20420;-61
2022/01/20 22:28:01;;;;;;;6.80;1.90;;;6.60;99.50;;;;;;10466108;28;20107;-62
2022/01/20 22:33:03;;;;;;;7.93;1.65;;;6.60;99.40;;;;;;10464872;28;20167;-61
2022/01/20 22:38:06;;;;;;;8.20;2.00;;;6.50;99.40;;;;;;10472124;28;20036;-61
2022/01/20 22:43:08;;;;;;;5.88;1.52;;;6.50;99.40;;;;;;10477010;28;20509;-61
2022/01/20 22:48:11;;;;;;;10.55;1.80;;;6.50;99.40;;;;;;10465431;28;20025;-61
2022/01/20 22:53:11;;;;;;;4.40;1.38;;;6.50;99.70;;;;;;10455195;28;20175;-62
2022/01/20 22:58:13;;;;;;;7.32;1.83;;;6.50;99.40;;;;;;10469019;28;20040;-61
2022/01/20 23:03:15;;;;;;;8.45;1.50;;;6.50;99.40;;;;;;10456173;28;20401;-62
2022/01/20 23:08:16;;;;;;;6.45;1.65;;;6.50;99.40;;;;;;10475135;28;20037;-63
2022/01/20 23:13:18;;;;;;;8.88;2.13;;;6.50;99.40;;;;;;10463200;28;20032;-62
2022/01/20 23:23:24;;;;;;;9.98;1.55;;;6.50;99.40;;;;;;10476793;28;20509;-61
2022/01/20 23:28:25;;;;;;;10.23;2.58;;;6.50;99.30;;;;;;10468927;28;20025;-62
2022/01/20 23:33:26;;;;;;;7.15;1.60;;;6.50;99.30;;;;;;10463314;28;20397;-62
2022/01/20 23:38:27;;;;;;;12.52;1.77;;;6.50;99.30;;;;;;10470816;28;20060;-61
2022/01/20 23:43:36;;;;;;;7.35;1.58;;;6.50;99.30;;;;;;10520926;28;20047;-61
2022/01/20 23:48:37;;;;;;;11.38;1.42;;;6.60;99.30;;;;;;10512138;28;20098;-62
2022/01/20 23:53:38;;;;;;;4.57;1.00;;;6.50;99.30;;;;;;10512876;28;20098;-62
2022/01/20 23:58:39;;;;;;;8.38;1.02;;;6.50;99.30;;;;;;10530844;28;20041;-62
